createdAt,value
2023-05-01T00:01:27.209Z,10.51
2023-05-01T00:03:55.285Z,10.47
2023-05-01T00:06:23.509Z,10.55
2023-05-01T00:08:51.514Z,10.54
2023-05-01T00:11:19.509Z,10.54
2023-05-01T00:13:47.887Z,10.49
2023-05-01T00:16:18.111Z,10.57
2023-05-01T00:18:46.278Z,10.45
2023-05-01T00:21:14.321Z,10.35
2023-05-01T00:23:42.228Z,10.41
2023-05-01T00:26:10.159Z,10.48
2023-05-01T00:28:38.112Z,10.51
2023-05-01T00:31:06.169Z,10.47
2023-05-01T00:33:35.591Z,10.37
2023-05-01T00:36:03.698Z,10.27
2023-05-01T00:38:32.108Z,10.28
2023-05-01T00:40:59.994Z,10.29
2023-05-01T00:43:28.002Z,10.32
2023-05-01T00:45:55.997Z,10.30
2023-05-01T00:48:24.228Z,10.29
2023-05-01T00:50:55.363Z,10.25
2023-05-01T00:53:26.388Z,10.23
2023-05-01T00:55:56.527Z,10.13
2023-05-01T00:58:24.726Z,10.15
2023-05-01T01:00:53.500Z,10.09
2023-05-01T01:03:21.419Z,10.22
2023-05-01T01:05:57.882Z,10.17
2023-05-01T01:08:32.577Z,10.12
2023-05-01T01:11:09.548Z,9.97
2023-05-01T01:13:44.955Z,10.07
2023-05-01T01:16:20.282Z,10.01
2023-05-01T01:18:54.392Z,10.05
2023-05-01T01:21:34.416Z,9.90
2023-05-01T01:24:28.893Z,9.95
2023-05-01T01:27:20.663Z,9.87
2023-05-01T01:30:04.850Z,9.87
2023-05-01T01:33:02.527Z,9.83
2023-05-01T01:35:34.424Z,9.77
2023-05-01T01:38:07.652Z,9.74
2023-05-01T01:40:40.785Z,9.82
2023-05-01T01:43:13.575Z,9.87
2023-05-01T01:45:44.957Z,9.85
2023-05-01T01:48:17.698Z,9.82
2023-05-01T01:50:51.476Z,9.80
2023-05-01T01:53:20.714Z,9.84
2023-05-01T01:55:52.080Z,9.78
2023-05-01T01:58:26.211Z,9.81
2023-05-01T02:00:56.626Z,9.78
2023-05-01T02:03:25.921Z,9.77
2023-05-01T02:05:57.573Z,9.68
2023-05-01T02:08:26.680Z,9.70
2023-05-01T02:11:01.708Z,9.52
2023-05-01T02:13:32.050Z,9.58
2023-05-01T02:16:02.158Z,9.53
2023-05-01T02:18:32.061Z,9.61
2023-05-01T02:21:02.270Z,9.54
2023-05-01T02:23:33.537Z,9.40
2023-05-01T02:26:05.177Z,9.45
2023-05-01T02:28:35.322Z,9.51
2023-05-01T02:31:03.292Z,9.43
2023-05-01T02:33:31.309Z,9.42
2023-05-01T02:35:59.757Z,9.44
2023-05-01T02:38:29.910Z,9.47
2023-05-01T02:40:59.115Z,9.45
2023-05-01T02:43:28.780Z,9.45
2023-05-01T02:45:59.118Z,9.43
2023-05-01T02:48:29.339Z,9.40
2023-05-01T02:50:58.266Z,9.32
2023-05-01T02:53:26.358Z,9.36
2023-05-01T02:55:56.123Z,9.34
2023-05-01T02:58:24.551Z,9.32
2023-05-01T03:00:52.643Z,9.21
2023-05-01T03:03:20.730Z,9.23
2023-05-01T03:05:48.734Z,9.27
2023-05-01T03:08:17.277Z,9.30
2023-05-01T03:10:45.372Z,9.29
2023-05-01T03:13:14.655Z,9.33
2023-05-01T03:15:42.908Z,9.34
2023-05-01T03:18:10.763Z,9.32
2023-05-01T03:20:38.613Z,9.30
2023-05-01T03:23:07.132Z,9.20
2023-05-01T03:25:35.105Z,9.21
2023-05-01T03:28:02.917Z,9.21
2023-05-01T03:30:35.495Z,9.17
2023-05-01T03:33:03.716Z,9.10
2023-05-01T03:35:31.792Z,9.13
2023-05-01T03:37:59.812Z,9.20
2023-05-01T03:40:27.698Z,9.17
2023-05-01T03:42:55.516Z,9.08
2023-05-01T03:45:23.425Z,9.14
2023-05-01T03:47:53.161Z,9.12
2023-05-01T03:50:20.994Z,9.07
2023-05-01T03:52:49.024Z,9.15
2023-05-01T03:55:17.056Z,9.13
2023-05-01T03:57:47.151Z,9.13
2023-05-01T04:00:15.394Z,9.12
2023-05-01T04:02:44.136Z,9.09
2023-05-01T04:05:14.529Z,9.14
2023-05-01T04:07:42.774Z,9.23
2023-05-01T04:10:11.058Z,9.26
2023-05-01T04:12:39.030Z,9.24
2023-05-01T04:15:08.554Z,9.13
2023-05-01T04:17:37.006Z,9.19
2023-05-01T04:20:06.367Z,9.26
2023-05-01T04:22:35.676Z,9.27
2023-05-01T04:25:04.759Z,9.28
2023-05-01T04:27:32.806Z,9.25
2023-05-01T04:30:00.850Z,9.35
2023-05-01T04:32:28.835Z,9.32
2023-05-01T04:34:56.867Z,9.33
2023-05-01T04:37:24.873Z,9.26
2023-05-01T04:39:55.729Z,9.29
2023-05-01T04:42:24.514Z,9.39
2023-05-01T04:44:52.388Z,9.43
2023-05-01T04:47:20.351Z,9.49
2023-05-01T04:49:48.287Z,9.58
2023-05-01T04:52:16.419Z,9.55
2023-05-01T04:54:44.485Z,9.52
2023-05-01T04:57:13.792Z,9.55
2023-05-01T04:59:41.699Z,9.63
2023-05-01T05:02:09.912Z,9.75
2023-05-01T05:04:38.061Z,9.76
2023-05-01T05:07:05.909Z,9.87
2023-05-01T05:09:33.898Z,9.88
2023-05-01T05:12:03.939Z,9.90
2023-05-01T05:14:33.237Z,9.90
2023-05-01T05:17:01.274Z,10.01
2023-05-01T05:19:29.315Z,10.17
2023-05-01T05:21:57.229Z,10.25
2023-05-01T05:24:26.172Z,10.29
2023-05-01T05:26:55.670Z,10.37
2023-05-01T05:29:23.636Z,10.47
2023-05-01T05:31:53.129Z,10.55
2023-05-01T05:34:21.458Z,10.54
2023-05-01T05:36:49.400Z,10.56
2023-05-01T05:39:17.501Z,10.63
2023-05-01T05:41:45.588Z,10.67
2023-05-01T05:44:13.595Z,10.79
2023-05-01T05:46:41.891Z,10.76
2023-05-01T05:49:12.424Z,10.86
2023-05-01T05:51:40.578Z,10.96
2023-05-01T05:54:08.840Z,10.95
2023-05-01T05:56:37.016Z,11.03
2023-05-01T05:59:06.534Z,11.08
2023-05-01T06:01:37.581Z,11.06
2023-05-01T06:04:06.318Z,10.94
2023-05-01T06:06:35.749Z,11.05
2023-05-01T06:09:04.099Z,11.11
2023-05-01T06:11:32.089Z,11.17
2023-05-01T06:14:00.392Z,11.21
2023-05-01T06:16:28.513Z,11.31
2023-05-01T06:18:56.940Z,11.45
2023-05-01T06:21:27.953Z,11.61
2023-05-01T06:24:00.045Z,11.73
2023-05-01T06:26:28.381Z,11.83
2023-05-01T06:28:56.588Z,11.95
2023-05-01T06:31:24.656Z,12.10
2023-05-01T06:33:55.404Z,12.23
2023-05-01T06:36:23.738Z,12.30
2023-05-01T06:38:52.551Z,12.42
2023-05-01T06:41:22.778Z,12.36
2023-05-01T06:43:50.662Z,12.38
2023-05-01T06:46:19.185Z,12.47
2023-05-01T06:48:47.500Z,13.12
2023-05-01T06:51:16.111Z,14.98
2023-05-01T06:53:44.307Z,16.94
2023-05-01T06:56:12.285Z,18.64
2023-05-01T06:58:41.654Z,19.81
2023-05-01T07:01:09.750Z,20.69
2023-05-01T07:03:38.122Z,21.34
2023-05-01T07:06:06.331Z,21.88
2023-05-01T07:08:34.456Z,22.52
2023-05-01T07:11:02.507Z,23.25
2023-05-01T07:13:30.506Z,23.41
2023-05-01T07:15:59.969Z,23.76
2023-05-01T07:18:27.938Z,23.73
2023-05-01T07:20:55.860Z,24.02
2023-05-01T07:23:25.482Z,24.62
2023-05-01T07:25:53.886Z,24.89
2023-05-01T07:28:22.876Z,25.06
2023-05-01T07:30:50.757Z,24.86
2023-05-01T07:33:20.283Z,25.62
2023-05-01T07:35:48.333Z,25.17
2023-05-01T07:38:17.972Z,25.89
2023-05-01T07:40:46.358Z,25.71
2023-05-01T07:43:14.291Z,25.97
2023-05-01T07:45:42.940Z,26.77
2023-05-01T07:48:11.301Z,27.03
2023-05-01T07:50:41.545Z,26.74
2023-05-01T07:53:09.417Z,26.66
2023-05-01T07:55:37.936Z,26.72
2023-05-01T07:58:06.720Z,27.42
2023-05-01T08:00:34.749Z,27.27
2023-05-01T08:03:03.160Z,27.67
2023-05-01T08:05:31.923Z,27.39
2023-05-01T08:08:01.324Z,27.66
2023-05-01T08:10:29.265Z,27.20
2023-05-01T08:12:57.179Z,27.54
2023-05-01T08:15:25.426Z,27.46
2023-05-01T08:17:53.387Z,27.59
2023-05-01T08:20:21.529Z,28.11
2023-05-01T08:22:49.404Z,28.29
2023-05-01T08:25:19.480Z,28.29
2023-05-01T08:27:47.400Z,28.42
2023-05-01T08:30:15.982Z,28.77
2023-05-01T08:32:44.077Z,28.87
2023-05-01T08:35:12.052Z,27.65
2023-05-01T08:37:40.736Z,27.79
2023-05-01T08:40:10.397Z,27.82
2023-05-01T08:42:39.945Z,28.44
2023-05-01T08:45:10.486Z,28.99
2023-05-01T08:47:40.292Z,29.18
2023-05-01T08:50:13.126Z,28.68
2023-05-01T08:52:43.399Z,28.77
2023-05-01T08:55:14.887Z,29.19
2023-05-01T08:57:47.692Z,29.44
2023-05-01T09:00:20.385Z,28.92
2023-05-01T09:02:50.416Z,28.71
2023-05-01T09:05:19.742Z,28.64
2023-05-01T09:07:49.515Z,29.03
2023-05-01T09:10:19.085Z,29.11
2023-05-01T09:12:55.399Z,29.36
2023-05-01T09:15:27.130Z,29.15
2023-05-01T09:17:55.922Z,29.28
2023-05-01T09:20:25.481Z,29.10
2023-05-01T09:22:56.902Z,29.17
2023-05-01T09:25:24.956Z,28.94
2023-05-01T09:27:57.011Z,28.74
2023-05-01T09:30:32.588Z,28.52
2023-05-01T09:33:13.863Z,28.22
2023-05-01T09:35:53.137Z,27.73
2023-05-01T09:38:22.831Z,26.86
2023-05-01T09:40:51.055Z,26.37
2023-05-01T09:43:31.677Z,25.18
2023-05-01T09:46:05.477Z,24.15
2023-05-01T09:48:36.070Z,23.85
2023-05-01T09:51:21.606Z,23.73
2023-05-01T09:53:50.075Z,23.39
2023-05-01T09:56:18.520Z,23.31
2023-05-01T09:58:48.370Z,22.85
2023-05-01T10:01:16.757Z,22.78
2023-05-01T10:03:46.410Z,22.83
2023-05-01T10:06:29.033Z,22.91
2023-05-01T10:09:20.961Z,23.09
2023-05-01T10:11:50.569Z,22.61
2023-05-01T10:14:21.913Z,22.69
2023-05-01T10:16:53.218Z,22.78
2023-05-01T10:19:21.908Z,22.73
2023-05-01T10:21:49.931Z,23.07
2023-05-01T10:24:19.125Z,22.82
2023-05-01T10:26:49.996Z,22.82
2023-05-01T10:29:24.707Z,23.01
2023-05-01T10:31:54.051Z,23.32
2023-05-01T10:34:27.052Z,23.34
2023-05-01T10:37:01.906Z,23.22
2023-05-01T10:39:34.087Z,23.09
2023-05-01T10:42:03.881Z,22.84
2023-05-01T10:44:34.943Z,22.77
2023-05-01T10:47:37.846Z,22.68
2023-05-01T10:50:08.369Z,22.35
2023-05-01T10:53:14.663Z,22.23
2023-05-01T10:55:47.176Z,22.03
2023-05-01T10:58:18.446Z,22.10
2023-05-01T11:01:26.416Z,22.16
2023-05-01T11:03:54.495Z,22.12
2023-05-01T11:06:23.310Z,21.99
2023-05-01T11:08:51.924Z,21.97
2023-05-01T11:11:50.121Z,22.25
2023-05-01T11:14:18.789Z,21.95
2023-05-01T11:16:49.410Z,22.06
2023-05-01T11:19:50.826Z,22.13
2023-05-01T11:22:19.453Z,22.17
2023-05-01T11:24:48.080Z,22.18
2023-05-01T11:27:17.009Z,22.21
2023-05-01T11:29:49.629Z,22.18
2023-05-01T11:32:27.247Z,22.17
2023-05-01T11:34:55.861Z,22.20
2023-05-01T11:37:43.048Z,22.00
2023-05-01T11:40:22.479Z,21.85
2023-05-01T11:42:51.250Z,21.84
2023-05-01T11:45:20.971Z,21.91
2023-05-01T11:47:50.520Z,21.42
2023-05-01T11:50:18.553Z,21.25
2023-05-01T11:52:49.325Z,21.18
2023-05-01T11:55:17.803Z,21.15
2023-05-01T11:57:50.257Z,21.10
2023-05-01T12:00:28.510Z,21.25
2023-05-01T12:03:03.120Z,21.49
2023-05-01T12:05:32.478Z,21.47
2023-05-01T12:08:11.839Z,21.56
2023-05-01T12:10:41.816Z,21.59
2023-05-01T12:13:11.175Z,21.56
2023-05-01T12:15:40.915Z,21.43
2023-05-01T12:18:10.546Z,21.18
2023-05-01T12:20:39.973Z,21.39
2023-05-01T12:23:09.775Z,21.48
2023-05-01T12:25:39.543Z,21.59
2023-05-01T12:28:11.992Z,21.44
2023-05-01T12:30:40.804Z,21.40
2023-05-01T12:33:15.110Z,21.38
2023-05-01T12:35:45.359Z,21.30
2023-05-01T12:38:15.348Z,21.23
2023-05-01T12:40:53.943Z,20.92
2023-05-01T12:43:23.236Z,21.04
2023-05-01T12:45:54.971Z,20.93
2023-05-01T12:48:25.343Z,20.89
2023-05-01T12:50:55.348Z,21.04
2023-05-01T12:53:24.350Z,21.26
2023-05-01T12:55:54.518Z,21.47
2023-05-01T12:58:22.706Z,21.68
2023-05-01T13:00:53.046Z,21.72
2023-05-01T13:03:28.084Z,21.82
2023-05-01T13:05:58.092Z,21.77
2023-05-01T13:08:31.618Z,21.84
2023-05-01T13:11:01.999Z,21.96
2023-05-01T13:13:32.099Z,21.67
2023-05-01T13:16:08.861Z,21.80
2023-05-01T13:18:49.646Z,21.94
2023-05-01T13:21:19.622Z,22.18
2023-05-01T13:23:54.733Z,22.37
2023-05-01T13:26:28.849Z,22.56
2023-05-01T13:28:57.855Z,22.59
2023-05-01T13:31:26.296Z,22.57
2023-05-01T13:33:57.047Z,22.50
2023-05-01T13:36:27.089Z,22.47
2023-05-01T13:38:56.975Z,22.45
2023-05-01T13:41:27.445Z,22.25
2023-05-01T13:43:56.634Z,22.31
2023-05-01T13:46:26.907Z,22.49
2023-05-01T13:48:56.409Z,22.56
2023-05-01T13:51:26.459Z,22.54
2023-05-01T13:53:54.520Z,22.55
2023-05-01T13:56:22.865Z,22.52
2023-05-01T13:58:51.380Z,22.37
2023-05-01T14:01:21.374Z,22.32
2023-05-01T14:03:50.397Z,22.40
2023-05-01T14:06:21.920Z,22.20
2023-05-01T14:08:50.096Z,22.18
2023-05-01T14:11:20.101Z,22.38
2023-05-01T14:13:49.734Z,22.53
2023-05-01T14:16:25.911Z,22.64
2023-05-01T14:18:57.277Z,22.72
2023-05-01T14:21:28.787Z,22.75
2023-05-01T14:23:58.325Z,22.59
2023-05-01T14:26:26.330Z,22.60
2023-05-01T14:28:54.683Z,22.69
2023-05-01T14:31:27.355Z,22.71
2023-05-01T14:33:57.458Z,22.84
2023-05-01T14:36:28.426Z,22.72
2023-05-01T14:38:57.900Z,22.54
2023-05-01T14:41:25.971Z,22.68
2023-05-01T14:43:54.453Z,22.66
2023-05-01T14:46:29.621Z,22.41
2023-05-01T14:48:57.973Z,22.65
2023-05-01T14:51:27.366Z,22.63
2023-05-01T14:53:56.044Z,22.51
2023-05-01T14:56:24.050Z,22.41
2023-05-01T14:58:52.073Z,22.68
2023-05-01T15:01:20.556Z,22.91
2023-05-01T15:03:49.076Z,22.77
2023-05-01T15:06:17.494Z,22.85
2023-05-01T15:08:46.874Z,22.93
2023-05-01T15:11:15.374Z,22.91
2023-05-01T15:13:44.299Z,22.89
2023-05-01T15:16:12.291Z,22.94
2023-05-01T15:18:40.619Z,22.88
2023-05-01T15:21:08.497Z,22.82
2023-05-01T15:23:37.157Z,22.83
2023-05-01T15:26:06.550Z,22.69
2023-05-01T15:28:34.382Z,22.54
2023-05-01T15:31:02.332Z,22.50
2023-05-01T15:33:30.447Z,22.41
2023-05-01T15:35:59.686Z,22.31
2023-05-01T15:38:28.315Z,22.21
2023-05-01T15:40:56.388Z,22.18
2023-05-01T15:43:25.619Z,22.02
2023-05-01T15:45:57.881Z,22.05
2023-05-01T15:48:26.176Z,21.85
2023-05-01T15:50:54.167Z,21.89
2023-05-01T15:53:22.477Z,21.95
2023-05-01T15:55:50.337Z,21.90
2023-05-01T15:58:19.045Z,21.95
2023-05-01T16:00:50.071Z,21.97
2023-05-01T16:03:18.220Z,22.02
2023-05-01T16:05:47.670Z,21.95
2023-05-01T16:08:15.974Z,21.94
2023-05-01T16:10:43.997Z,21.89
2023-05-01T16:13:12.828Z,21.86
2023-05-01T16:15:40.827Z,21.86
2023-05-01T16:18:17.409Z,21.89
2023-05-01T16:20:45.817Z,21.84
2023-05-01T16:23:16.080Z,21.81
2023-05-01T16:25:44.770Z,21.73
2023-05-01T16:28:13.528Z,21.75
2023-05-01T16:30:44.684Z,21.67
2023-05-01T16:33:19.166Z,21.61
2023-05-01T16:35:49.386Z,21.72
2023-05-01T16:38:17.965Z,21.58
2023-05-01T16:40:46.882Z,21.57
2023-05-01T16:43:15.096Z,21.56
2023-05-01T16:45:43.131Z,21.46
2023-05-01T16:48:11.549Z,21.36
2023-05-01T16:50:42.943Z,21.23
2023-05-01T16:53:10.852Z,21.09
2023-05-01T16:55:38.725Z,21.02
2023-05-01T16:58:06.974Z,20.95
2023-05-01T17:00:34.907Z,20.75
2023-05-01T17:03:02.990Z,20.68
2023-05-01T17:05:30.975Z,20.51
2023-05-01T17:08:00.229Z,20.40
2023-05-01T17:10:28.205Z,20.29
2023-05-01T17:12:56.516Z,20.26
2023-05-01T17:15:24.373Z,20.15
2023-05-01T17:17:52.242Z,20.08
2023-05-01T17:20:20.268Z,20.02
2023-05-01T17:22:48.156Z,20.01
2023-05-01T17:25:17.568Z,19.96
2023-05-01T17:27:45.478Z,19.83
2023-05-01T17:30:13.818Z,19.82
2023-05-01T17:32:41.892Z,19.68
2023-05-01T17:35:10.258Z,19.62
2023-05-01T17:37:39.814Z,19.52
2023-05-01T17:40:11.051Z,19.50
2023-05-01T17:42:40.462Z,19.37
2023-05-01T17:45:10.372Z,19.09
2023-05-01T17:47:41.668Z,19.10
2023-05-01T17:50:12.310Z,19.07
2023-05-01T17:52:40.451Z,18.86
2023-05-01T17:55:09.112Z,18.65
2023-05-01T17:57:37.067Z,18.58
2023-05-01T18:00:07.905Z,18.52
2023-05-01T18:02:36.838Z,18.39
2023-05-01T18:05:06.137Z,18.28
2023-05-01T18:07:36.354Z,18.24
2023-05-01T18:10:04.711Z,18.18
2023-05-01T18:12:32.545Z,18.19
2023-05-01T18:15:00.477Z,18.17
2023-05-01T18:17:29.759Z,18.16
2023-05-01T18:19:57.833Z,18.05
2023-05-01T18:22:29.194Z,17.92
2023-05-01T18:24:57.377Z,17.95
2023-05-01T18:27:26.087Z,18.00
2023-05-01T18:29:55.531Z,18.08
2023-05-01T18:32:30.224Z,18.05
2023-05-01T18:35:05.852Z,18.07
2023-05-01T18:37:34.256Z,18.01
2023-05-01T18:40:02.304Z,17.88
2023-05-01T18:42:30.293Z,17.80
2023-05-01T18:44:58.197Z,17.72
2023-05-01T18:47:26.744Z,17.75
2023-05-01T18:49:55.060Z,17.66
2023-05-01T18:52:24.458Z,17.63
2023-05-01T18:54:52.381Z,17.62
2023-05-01T18:57:20.493Z,17.43
2023-05-01T18:59:48.507Z,17.34
2023-05-01T19:02:16.475Z,17.26
2023-05-01T19:04:56.623Z,17.20
2023-05-01T19:07:27.735Z,17.11
2023-05-01T19:09:55.843Z,17.05
2023-05-01T19:12:23.806Z,16.89
2023-05-01T19:14:52.230Z,16.87
2023-05-01T19:17:21.015Z,16.83
2023-05-01T19:19:49.381Z,16.74
2023-05-01T19:22:17.737Z,16.73
2023-05-01T19:24:47.181Z,16.71
2023-05-01T19:27:15.143Z,16.61
2023-05-01T19:29:43.115Z,16.58
2023-05-01T19:32:11.391Z,16.49
2023-05-01T19:34:39.583Z,16.41
2023-05-01T19:37:07.501Z,16.35
2023-05-01T19:39:37.209Z,16.39
2023-05-01T19:42:06.532Z,16.35
2023-05-01T19:44:35.496Z,16.30
2023-05-01T19:47:03.548Z,16.25
2023-05-01T19:49:31.413Z,16.21
2023-05-01T19:51:59.439Z,16.20
2023-05-01T19:54:27.341Z,16.19
2023-05-01T19:56:56.172Z,16.15
2023-05-01T19:59:32.652Z,16.03
2023-05-01T20:02:01.601Z,15.96
2023-05-01T20:04:29.693Z,15.86
2023-05-01T20:06:58.040Z,15.86
2023-05-01T20:09:26.934Z,15.86
2023-05-01T20:11:55.059Z,15.79
2023-05-01T20:14:23.225Z,15.76
2023-05-01T20:16:53.096Z,15.73
2023-05-01T20:19:21.100Z,15.69
2023-05-01T20:21:49.081Z,15.67
2023-05-01T20:24:17.064Z,15.64
2023-05-01T20:26:45.041Z,15.63
2023-05-01T20:29:13.917Z,15.66
2023-05-01T20:31:41.802Z,15.59
2023-05-01T20:34:11.163Z,15.56
2023-05-01T20:36:39.636Z,15.57
2023-05-01T20:39:08.299Z,15.58
2023-05-01T20:41:38.404Z,15.51
2023-05-01T20:44:07.193Z,15.46
2023-05-01T20:46:35.200Z,15.50
2023-05-01T20:49:05.476Z,15.47
2023-05-01T20:51:34.954Z,15.38
2023-05-01T20:54:02.969Z,15.36
2023-05-01T20:56:30.991Z,15.31
2023-05-01T20:59:00.372Z,15.34
2023-05-01T21:01:30.618Z,15.33
2023-05-01T21:04:00.173Z,15.33
2023-05-01T21:06:28.516Z,15.28
2023-05-01T21:09:00.227Z,15.23
2023-05-01T21:11:28.307Z,15.16
2023-05-01T21:13:58.285Z,15.17
2023-05-01T21:16:27.688Z,15.04
2023-05-01T21:18:55.681Z,15.00
2023-05-01T21:21:25.003Z,14.97
2023-05-01T21:23:53.223Z,14.95
2023-05-01T21:26:22.871Z,14.93
2023-05-01T21:28:50.907Z,14.94
2023-05-01T21:31:19.059Z,14.92
2023-05-01T21:33:47.440Z,14.91
2023-05-01T21:36:18.500Z,14.90
2023-05-01T21:38:47.127Z,14.93
2023-05-01T21:41:15.770Z,14.89
2023-05-01T21:43:45.358Z,14.96
2023-05-01T21:46:17.931Z,15.02
2023-05-01T21:48:50.549Z,15.08
2023-05-01T21:51:19.383Z,15.11
2023-05-01T21:53:47.727Z,15.15
2023-05-01T21:56:15.759Z,15.20
2023-05-01T21:58:45.009Z,15.23
2023-05-01T22:01:14.482Z,15.30
2023-05-01T22:03:43.480Z,15.33
2023-05-01T22:06:11.660Z,15.26
2023-05-01T22:08:39.648Z,15.19
2023-05-01T22:11:08.531Z,15.24
2023-05-01T22:13:36.667Z,15.19
2023-05-01T22:16:06.720Z,15.23
2023-05-01T22:18:34.709Z,15.18
2023-05-01T22:21:03.568Z,15.15
2023-05-01T22:23:31.512Z,15.16
2023-05-01T22:26:00.767Z,15.22
2023-05-01T22:28:29.125Z,15.23
2023-05-01T22:30:57.065Z,15.31
2023-05-01T22:33:26.403Z,15.28
2023-05-01T22:35:54.405Z,15.25
2023-05-01T22:38:22.241Z,15.31
2023-05-01T22:40:50.176Z,15.27
2023-05-01T22:43:18.139Z,15.19
2023-05-01T22:45:46.521Z,15.20
2023-05-01T22:48:14.392Z,15.20
2023-05-01T22:50:44.008Z,15.16
2023-05-01T22:53:12.172Z,15.20
2023-05-01T22:55:40.204Z,15.10
2023-05-01T22:58:08.367Z,15.01
2023-05-01T23:00:36.618Z,14.97
2023-05-01T23:03:05.084Z,15.02
2023-05-01T23:05:33.249Z,15.04
2023-05-01T23:08:02.835Z,15.00
2023-05-01T23:10:33.001Z,15.02
2023-05-01T23:13:01.930Z,15.06
2023-05-01T23:15:29.807Z,15.05
2023-05-01T23:17:57.783Z,15.00
2023-05-01T23:20:26.293Z,15.04
2023-05-01T23:22:54.952Z,14.97
2023-05-01T23:25:27.310Z,14.94
2023-05-01T23:27:56.630Z,14.93
2023-05-01T23:30:24.860Z,14.88
2023-05-01T23:32:53.034Z,14.87
2023-05-01T23:35:23.882Z,14.80
2023-05-01T23:37:53.956Z,14.79
2023-05-01T23:40:22.558Z,14.82
2023-05-01T23:42:52.736Z,14.69
2023-05-01T23:45:20.777Z,14.56
2023-05-01T23:47:48.778Z,14.54
2023-05-01T23:50:16.776Z,14.53
2023-05-01T23:52:44.767Z,14.49
2023-05-01T23:55:12.648Z,14.33
2023-05-01T23:57:40.696Z,14.20
